Terminal Aerodrome Forecast
Issued by NWS

Home | Current Version | Previous Version | Text Only | Print | Product List | Glossary On
Versions: 1 2 3 4 5 6 7 8 9 10 11 12 13 14 15 16 17 18
000
FTPA31 PHFO 271731
TAFHNY
TAF
PHNY 271731Z 2718/2818 04010KT P6SM SCT025
     FM272000 24010KT P6SM BKN025
     FM280000 04012G22KT P6SM BKN035
     FM280500 05009KT P6SM SCT025=

USA.gov is the U.S. government's official web portal to all federal, state and local government web resources and services.